sensor_id;sensor_type;location;lat;lon;timestamp;pressure;altitude;pressure_sealevel;temperature
79053;BMP280;68451;49.510;6.026;2023-07-08T00:00:10;98101.28;;;18.69
79053;BMP280;68451;49.510;6.026;2023-07-08T00:02:35;98018.19;;;18.11
79053;BMP280;68451;49.510;6.026;2023-07-08T00:05:00;98090.97;;;18.62
79053;BMP280;68451;49.510;6.026;2023-07-08T00:07:26;98082.28;;;18.47
79053;BMP280;68451;49.510;6.026;2023-07-08T00:09:53;98084.16;;;18.46
79053;BMP280;68451;49.510;6.026;2023-07-08T00:12:19;98093.44;;;18.39
79053;BMP280;68451;49.510;6.026;2023-07-08T00:14:44;98085.53;;;18.23
79053;BMP280;68451;49.510;6.026;2023-07-08T00:17:11;98100.59;;;18.23
79053;BMP280;68451;49.510;6.026;2023-07-08T00:19:38;98053.38;;;17.81
79053;BMP280;68451;49.510;6.026;2023-07-08T00:22:13;98033.56;;;17.73
79053;BMP280;68451;49.510;6.026;2023-07-08T00:24:41;97793.22;;;16.18
79053;BMP280;68451;49.510;6.026;2023-07-08T00:27:11;98093.22;;;18.00
79053;BMP280;68451;49.510;6.026;2023-07-08T00:29:40;98072.13;;;17.79
79053;BMP280;68451;49.510;6.026;2023-07-08T00:32:10;98067.09;;;17.78
79053;BMP280;68451;49.510;6.026;2023-07-08T00:34:36;98040.13;;;17.56
79053;BMP280;68451;49.510;6.026;2023-07-08T00:37:02;97992.38;;;17.22
79053;BMP280;68451;49.510;6.026;2023-07-08T00:39:32;98042.00;;;17.45
79053;BMP280;68451;49.510;6.026;2023-07-08T00:41:59;98018.50;;;17.33
79053;BMP280;68451;49.510;6.026;2023-07-08T00:44:25;97960.16;;;16.94
79053;BMP280;68451;49.510;6.026;2023-07-08T00:47:07;97950.41;;;16.85
79053;BMP280;68451;49.510;6.026;2023-07-08T00:49:51;98055.19;;;17.55
79053;BMP280;68451;49.510;6.026;2023-07-08T00:52:21;98039.88;;;17.47
79053;BMP280;68451;49.510;6.026;2023-07-08T00:54:53;98055.97;;;17.56
79053;BMP280;68451;49.510;6.026;2023-07-08T00:57:19;98041.72;;;17.52
79053;BMP280;68451;49.510;6.026;2023-07-08T00:59:52;98061.25;;;17.51
79053;BMP280;68451;49.510;6.026;2023-07-08T01:02:21;98037.50;;;17.30
79053;BMP280;68451;49.510;6.026;2023-07-08T01:05:03;98083.41;;;17.55
79053;BMP280;68451;49.510;6.026;2023-07-08T01:07:30;98077.09;;;17.51
79053;BMP280;68451;49.510;6.026;2023-07-08T01:10:02;97951.69;;;16.62
79053;BMP280;68451;49.510;6.026;2023-07-08T01:12:35;98057.81;;;17.30
79053;BMP280;68451;49.510;6.026;2023-07-08T01:15:02;98053.88;;;17.27
79053;BMP280;68451;49.510;6.026;2023-07-08T01:17:29;98036.41;;;17.11
79053;BMP280;68451;49.510;6.026;2023-07-08T01:20:03;98059.94;;;17.23
79053;BMP280;68451;49.510;6.026;2023-07-08T01:22:37;98019.50;;;16.92
79053;BMP280;68451;49.510;6.026;2023-07-08T01:25:03;98068.09;;;17.26
79053;BMP280;68451;49.510;6.026;2023-07-08T01:27:32;97913.84;;;16.21
79053;BMP280;68451;49.510;6.026;2023-07-08T01:29:59;98073.13;;;17.23
79053;BMP280;68451;49.510;6.026;2023-07-08T01:32:25;97968.22;;;16.52
79053;BMP280;68451;49.510;6.026;2023-07-08T01:34:52;97917.81;;;16.19
79053;BMP280;68451;49.510;6.026;2023-07-08T01:37:34;98038.72;;;16.87
79053;BMP280;68451;49.510;6.026;2023-07-08T01:42:32;98097.06;;;17.06
79053;BMP280;68451;49.510;6.026;2023-07-08T01:44:58;98076.72;;;16.91
79053;BMP280;68451;49.510;6.026;2023-07-08T01:47:23;98065.56;;;16.74
79053;BMP280;68451;49.510;6.026;2023-07-08T01:49:49;98053.69;;;16.62
79053;BMP280;68451;49.510;6.026;2023-07-08T01:52:16;97945.09;;;15.92
79053;BMP280;68451;49.510;6.026;2023-07-08T01:54:43;97955.34;;;15.94
79053;BMP280;68451;49.510;6.026;2023-07-08T01:57:08;98073.72;;;16.63
79053;BMP280;68451;49.510;6.026;2023-07-08T01:59:33;98067.56;;;16.52
79053;BMP280;68451;49.510;6.026;2023-07-08T02:01:59;98064.41;;;16.50
79053;BMP280;68451;49.510;6.026;2023-07-08T02:04:26;98101.94;;;16.67
79053;BMP280;68451;49.510;6.026;2023-07-08T02:06:55;98053.78;;;16.35
79053;BMP280;68451;49.510;6.026;2023-07-08T02:09:21;98069.34;;;16.36
79053;BMP280;68451;49.510;6.026;2023-07-08T02:11:46;98066.41;;;16.28
79053;BMP280;68451;49.510;6.026;2023-07-08T02:14:12;98110.78;;;16.46
79053;BMP280;68451;49.510;6.026;2023-07-08T02:16:37;98110.50;;;16.42
79053;BMP280;68451;49.510;6.026;2023-07-08T02:19:03;98112.59;;;16.40
79053;BMP280;68451;49.510;6.026;2023-07-08T02:21:28;97992.53;;;15.60
79053;BMP280;68451;49.510;6.026;2023-07-08T02:23:56;98042.84;;;16.06
79053;BMP280;68451;49.510;6.026;2023-07-08T02:26:22;98105.22;;;16.42
79053;BMP280;68451;49.510;6.026;2023-07-08T02:28:48;98082.25;;;16.33
79053;BMP280;68451;49.510;6.026;2023-07-08T02:31:13;98066.66;;;16.26
79053;BMP280;68451;49.510;6.026;2023-07-08T02:33:39;98069.31;;;16.31
79053;BMP280;68451;49.510;6.026;2023-07-08T02:36:04;98069.34;;;16.36
79053;BMP280;68451;49.510;6.026;2023-07-08T02:38:30;98056.44;;;16.35
79053;BMP280;68451;49.510;6.026;2023-07-08T02:40:55;98096.41;;;16.64
79053;BMP280;68451;49.510;6.026;2023-07-08T02:43:21;97971.91;;;15.89
79053;BMP280;68451;49.510;6.026;2023-07-08T02:45:49;98053.03;;;16.39
79053;BMP280;68451;49.510;6.026;2023-07-08T02:48:17;97838.25;;;15.02
79053;BMP280;68451;49.510;6.026;2023-07-08T02:50:42;98009.97;;;16.13
79053;BMP280;68451;49.510;6.026;2023-07-08T02:53:07;98040.31;;;16.26
79053;BMP280;68451;49.510;6.026;2023-07-08T02:55:33;98055.13;;;16.37
79053;BMP280;68451;49.510;6.026;2023-07-08T02:57:59;97820.22;;;14.84
79053;BMP280;68451;49.510;6.026;2023-07-08T03:00:24;98068.34;;;16.42
79053;BMP280;68451;49.510;6.026;2023-07-08T03:02:50;98056.13;;;16.26
79053;BMP280;68451;49.510;6.026;2023-07-08T03:05:15;98089.13;;;16.39
79053;BMP280;68451;49.510;6.026;2023-07-08T03:07:41;98099.69;;;16.44
79053;BMP280;68451;49.510;6.026;2023-07-08T03:10:07;98091.78;;;16.44
79053;BMP280;68451;49.510;6.026;2023-07-08T03:12:32;98083.03;;;16.33
79053;BMP280;68451;49.510;6.026;2023-07-08T03:14:58;98081.94;;;16.24
79053;BMP280;68451;49.510;6.026;2023-07-08T03:17:23;98084.81;;;16.23
79053;BMP280;68451;49.510;6.026;2023-07-08T03:19:49;98031.91;;;15.82
79053;BMP280;68451;49.510;6.026;2023-07-08T03:22:15;97957.84;;;15.37
79053;BMP280;68451;49.510;6.026;2023-07-08T03:24:41;98043.56;;;15.96
79053;BMP280;68451;49.510;6.026;2023-07-08T03:27:12;98101.19;;;16.30
79053;BMP280;68451;49.510;6.026;2023-07-08T03:29:37;98106.97;;;16.27
79053;BMP280;68451;49.510;6.026;2023-07-08T03:32:03;98075.22;;;16.01
79053;BMP280;68451;49.510;6.026;2023-07-08T03:34:29;98101.16;;;16.20
79053;BMP280;68451;49.510;6.026;2023-07-08T03:36:54;98055.63;;;15.87
79053;BMP280;68451;49.510;6.026;2023-07-08T03:39:22;98095.84;;;16.15
79053;BMP280;68451;49.510;6.026;2023-07-08T03:41:49;97937.16;;;15.08
79053;BMP280;68451;49.510;6.026;2023-07-08T03:44:15;97922.38;;;15.02
79053;BMP280;68451;49.510;6.026;2023-07-08T03:46:43;97921.28;;;14.98
79053;BMP280;68451;49.510;6.026;2023-07-08T03:49:10;98036.28;;;15.72
79053;BMP280;68451;49.510;6.026;2023-07-08T03:51:38;98079.69;;;16.01
79053;BMP280;68451;49.510;6.026;2023-07-08T03:54:05;98073.59;;;15.95
79053;BMP280;68451;49.510;6.026;2023-07-08T03:56:31;98069.88;;;15.91
79053;BMP280;68451;49.510;6.026;2023-07-08T03:58:57;98070.91;;;15.90
79053;BMP280;68451;49.510;6.026;2023-07-08T04:01:24;97953.78;;;15.19
79053;BMP280;68451;49.510;6.026;2023-07-08T04:03:52;98036.75;;;15.63
79053;BMP280;68451;49.510;6.026;2023-07-08T04:06:18;97929.69;;;15.00
79053;BMP280;68451;49.510;6.026;2023-07-08T04:08:44;97908.88;;;14.94
79053;BMP280;68451;49.510;6.026;2023-07-08T04:11:12;97936.41;;;15.18
79053;BMP280;68451;49.510;6.026;2023-07-08T04:13:38;98062.00;;;15.96
79053;BMP280;68451;49.510;6.026;2023-07-08T04:16:04;98079.94;;;15.99
79053;BMP280;68451;49.510;6.026;2023-07-08T04:18:30;97926.53;;;14.98
79053;BMP280;68451;49.510;6.026;2023-07-08T04:20:56;98089.13;;;15.97
79053;BMP280;68451;49.510;6.026;2023-07-08T04:23:22;97945.00;;;15.03
79053;BMP280;68451;49.510;6.026;2023-07-08T04:25:49;98092.53;;;15.92
79053;BMP280;68451;49.510;6.026;2023-07-08T04:28:16;98040.41;;;15.57
79053;BMP280;68451;49.510;6.026;2023-07-08T04:30:42;97948.41;;;15.04
79053;BMP280;68451;49.510;6.026;2023-07-08T04:33:09;98039.66;;;15.67
79053;BMP280;68451;49.510;6.026;2023-07-08T04:35:36;98075.88;;;15.87
79053;BMP280;68451;49.510;6.026;2023-07-08T04:38:05;98065.00;;;15.73
79053;BMP280;68451;49.510;6.026;2023-07-08T04:40:35;98105.25;;;16.05
79053;BMP280;68451;49.510;6.026;2023-07-08T04:43:06;98034.22;;;15.74
79053;BMP280;68451;49.510;6.026;2023-07-08T04:45:32;98090.66;;;16.25
79053;BMP280;68451;49.510;6.026;2023-07-08T04:47:58;98098.66;;;16.50
79053;BMP280;68451;49.510;6.026;2023-07-08T04:50:24;98084.03;;;16.69
79053;BMP280;68451;49.510;6.026;2023-07-08T04:52:50;98088.34;;;16.95
79053;BMP280;68451;49.510;6.026;2023-07-08T04:55:15;98100.06;;;17.40
79053;BMP280;68451;49.510;6.026;2023-07-08T04:57:41;98102.75;;;17.75
79053;BMP280;68451;49.510;6.026;2023-07-08T05:00:07;98104.81;;;18.24
79053;BMP280;68451;49.510;6.026;2023-07-08T05:05:15;97991.75;;;18.11
79053;BMP280;68451;49.510;6.026;2023-07-08T05:07:41;98054.97;;;18.76
79053;BMP280;68451;49.510;6.026;2023-07-08T05:10:07;98090.16;;;19.26
79053;BMP280;68451;49.510;6.026;2023-07-08T05:12:32;98099.09;;;19.74
79053;BMP280;68451;49.510;6.026;2023-07-08T05:14:58;98082.22;;;19.99
79053;BMP280;68451;49.510;6.026;2023-07-08T05:17:23;98086.78;;;20.46
79053;BMP280;68451;49.510;6.026;2023-07-08T05:19:50;98064.19;;;20.72
79053;BMP280;68451;49.510;6.026;2023-07-08T05:22:17;98091.88;;;21.27
79053;BMP280;68451;49.510;6.026;2023-07-08T05:24:43;98105.44;;;21.63
79053;BMP280;68451;49.510;6.026;2023-07-08T05:27:09;98128.91;;;22.40
79053;BMP280;68451;49.510;6.026;2023-07-08T05:29:34;98090.31;;;22.69
79053;BMP280;68451;49.510;6.026;2023-07-08T05:32:00;98072.50;;;23.06
79053;BMP280;68451;49.510;6.026;2023-07-08T05:34:25;98083.00;;;23.60
79053;BMP280;68451;49.510;6.026;2023-07-08T05:36:51;97889.56;;;23.06
79053;BMP280;68451;49.510;6.026;2023-07-08T05:39:16;98094.88;;;24.78
79053;BMP280;68451;49.510;6.026;2023-07-08T05:41:42;98001.56;;;24.64
79053;BMP280;68451;49.510;6.026;2023-07-08T05:44:07;98105.84;;;25.67
79053;BMP280;68451;49.510;6.026;2023-07-08T05:46:33;98117.94;;;25.82
79053;BMP280;68451;49.510;6.026;2023-07-08T05:48:58;97971.75;;;24.79
79053;BMP280;68451;49.510;6.026;2023-07-08T05:51:24;98068.41;;;25.67
79053;BMP280;68451;49.510;6.026;2023-07-08T05:53:49;98076.56;;;25.88
79053;BMP280;68451;49.510;6.026;2023-07-08T05:56:15;98144.03;;;26.11
79053;BMP280;68451;49.510;6.026;2023-07-08T05:58:40;97912.72;;;24.89
79053;BMP280;68451;49.510;6.026;2023-07-08T06:01:06;98044.69;;;26.21
79053;BMP280;68451;49.510;6.026;2023-07-08T06:03:31;98122.91;;;27.02
79053;BMP280;68451;49.510;6.026;2023-07-08T06:05:56;98121.44;;;26.46
79053;BMP280;68451;49.510;6.026;2023-07-08T06:08:22;98019.75;;;26.38
79053;BMP280;68451;49.510;6.026;2023-07-08T06:10:49;98125.53;;;27.73
79053;BMP280;68451;49.510;6.026;2023-07-08T06:13:14;98008.91;;;27.26
79053;BMP280;68451;49.510;6.026;2023-07-08T06:15:41;98134.28;;;28.60
79053;BMP280;68451;49.510;6.026;2023-07-08T06:18:07;98133.47;;;29.20
79053;BMP280;68451;49.510;6.026;2023-07-08T06:20:32;98138.84;;;29.20
79053;BMP280;68451;49.510;6.026;2023-07-08T06:22:58;97934.13;;;28.26
79053;BMP280;68451;49.510;6.026;2023-07-08T06:25:23;98131.59;;;30.16
79053;BMP280;68451;49.510;6.026;2023-07-08T06:27:49;98130.56;;;30.37
79053;BMP280;68451;49.510;6.026;2023-07-08T06:30:14;98101.56;;;29.59
79053;BMP280;68451;49.510;6.026;2023-07-08T06:32:40;98150.66;;;29.56
79053;BMP280;68451;49.510;6.026;2023-07-08T06:35:05;98119.84;;;29.53
79053;BMP280;68451;49.510;6.026;2023-07-08T06:37:31;98149.75;;;30.19
79053;BMP280;68451;49.510;6.026;2023-07-08T06:39:56;98132.88;;;30.07
79053;BMP280;68451;49.510;6.026;2023-07-08T06:42:22;98128.63;;;30.06
79053;BMP280;68451;49.510;6.026;2023-07-08T06:44:47;98144.44;;;29.40
79053;BMP280;68451;49.510;6.026;2023-07-08T06:47:20;98152.06;;;28.65
79053;BMP280;68451;49.510;6.026;2023-07-08T06:49:47;98158.81;;;28.95
79053;BMP280;68451;49.510;6.026;2023-07-08T06:52:13;97945.50;;;27.75
79053;BMP280;68451;49.510;6.026;2023-07-08T06:54:39;98133.41;;;28.80
79053;BMP280;68451;49.510;6.026;2023-07-08T06:57:05;98126.75;;;28.41
79053;BMP280;68451;49.510;6.026;2023-07-08T06:59:31;98158.63;;;28.88
79053;BMP280;68451;49.510;6.026;2023-07-08T07:01:56;98112.66;;;29.57
79053;BMP280;68451;49.510;6.026;2023-07-08T07:04:22;98152.41;;;30.47
79053;BMP280;68451;49.510;6.026;2023-07-08T07:06:47;98150.94;;;31.16
79053;BMP280;68451;49.510;6.026;2023-07-08T07:09:12;98130.38;;;31.62
79053;BMP280;68451;49.510;6.026;2023-07-08T07:11:38;98131.56;;;31.84
79053;BMP280;68451;49.510;6.026;2023-07-08T07:14:03;98155.34;;;31.97
79053;BMP280;68451;49.510;6.026;2023-07-08T07:16:29;97973.06;;;30.31
79053;BMP280;68451;49.510;6.026;2023-07-08T07:18:54;98156.00;;;31.72
79053;BMP280;68451;49.510;6.026;2023-07-08T07:21:20;98157.97;;;31.94
79053;BMP280;68451;49.510;6.026;2023-07-08T07:23:46;98053.72;;;31.47
79053;BMP280;68451;49.510;6.026;2023-07-08T07:26:11;98147.66;;;32.19
79053;BMP280;68451;49.510;6.026;2023-07-08T07:28:38;98060.13;;;30.85
79053;BMP280;68451;49.510;6.026;2023-07-08T07:31:04;98160.34;;;31.57
79053;BMP280;68451;49.510;6.026;2023-07-08T07:33:31;98139.31;;;31.66
79053;BMP280;68451;49.510;6.026;2023-07-08T07:35:57;98054.94;;;31.11
79053;BMP280;68451;49.510;6.026;2023-07-08T07:38:23;98156.16;;;32.40
79053;BMP280;68451;49.510;6.026;2023-07-08T07:40:55;98038.66;;;31.66
79053;BMP280;68451;49.510;6.026;2023-07-08T07:43:21;98067.22;;;32.09
79053;BMP280;68451;49.510;6.026;2023-07-08T07:45:51;98159.75;;;32.48
79053;BMP280;68451;49.510;6.026;2023-07-08T07:48:17;98169.22;;;32.61
79053;BMP280;68451;49.510;6.026;2023-07-08T07:50:47;98171.72;;;31.85
79053;BMP280;68451;49.510;6.026;2023-07-08T07:53:12;98136.03;;;31.57
79053;BMP280;68451;49.510;6.026;2023-07-08T07:55:38;98159.00;;;31.86
79053;BMP280;68451;49.510;6.026;2023-07-08T07:58:03;98172.38;;;32.02
79053;BMP280;68451;49.510;6.026;2023-07-08T08:00:30;98176.16;;;32.58
79053;BMP280;68451;49.510;6.026;2023-07-08T08:02:55;98178.97;;;32.42
79053;BMP280;68451;49.510;6.026;2023-07-08T08:05:21;98159.50;;;32.33
79053;BMP280;68451;49.510;6.026;2023-07-08T08:07:47;98164.25;;;32.85
79053;BMP280;68451;49.510;6.026;2023-07-08T08:10:13;98169.00;;;33.48
79053;BMP280;68451;49.510;6.026;2023-07-08T08:12:39;98170.88;;;34.41
79053;BMP280;68451;49.510;6.026;2023-07-08T08:15:05;98181.28;;;35.37
79053;BMP280;68451;49.510;6.026;2023-07-08T08:17:31;98182.44;;;36.19
79053;BMP280;68451;49.510;6.026;2023-07-08T08:19:56;98179.72;;;36.48
79053;BMP280;68451;49.510;6.026;2023-07-08T08:22:22;98185.97;;;36.80
79053;BMP280;68451;49.510;6.026;2023-07-08T08:24:47;98178.97;;;36.51
79053;BMP280;68451;49.510;6.026;2023-07-08T08:27:12;98177.16;;;35.58
79053;BMP280;68451;49.510;6.026;2023-07-08T08:29:38;98167.94;;;35.11
79053;BMP280;68451;49.510;6.026;2023-07-08T08:32:03;98112.44;;;34.98
79053;BMP280;68451;49.510;6.026;2023-07-08T08:34:29;98105.34;;;35.44
79053;BMP280;68451;49.510;6.026;2023-07-08T08:36:54;98077.97;;;34.98
79053;BMP280;68451;49.510;6.026;2023-07-08T08:39:21;98183.19;;;35.26
79053;BMP280;68451;49.510;6.026;2023-07-08T08:41:47;98176.19;;;35.22
79053;BMP280;68451;49.510;6.026;2023-07-08T08:44:24;98108.34;;;35.25
79053;BMP280;68451;49.510;6.026;2023-07-08T08:46:58;98198.34;;;36.21
79053;BMP280;68451;49.510;6.026;2023-07-08T08:49:30;98196.03;;;36.30
79053;BMP280;68451;49.510;6.026;2023-07-08T08:51:58;98208.41;;;36.13
79053;BMP280;68451;49.510;6.026;2023-07-08T08:54:24;98180.00;;;35.93
79053;BMP280;68451;49.510;6.026;2023-07-08T08:57:15;98206.78;;;35.91
79053;BMP280;68451;49.510;6.026;2023-07-08T08:59:53;98089.22;;;35.04
79053;BMP280;68451;49.510;6.026;2023-07-08T09:02:41;98198.75;;;36.30
79053;BMP280;68451;49.510;6.026;2023-07-08T09:05:10;98197.66;;;36.77
79053;BMP280;68451;49.510;6.026;2023-07-08T09:07:58;98186.34;;;37.10
79053;BMP280;68451;49.510;6.026;2023-07-08T09:10:37;98179.66;;;37.47
79053;BMP280;68451;49.510;6.026;2023-07-08T09:13:04;98199.00;;;37.77
79053;BMP280;68451;49.510;6.026;2023-07-08T09:15:32;98127.59;;;37.31
79053;BMP280;68451;49.510;6.026;2023-07-08T09:18:04;98043.78;;;36.69
79053;BMP280;68451;49.510;6.026;2023-07-08T09:20:37;98187.75;;;37.75
79053;BMP280;68451;49.510;6.026;2023-07-08T09:23:18;98186.50;;;37.90
79053;BMP280;68451;49.510;6.026;2023-07-08T09:25:51;98181.00;;;38.04
79053;BMP280;68451;49.510;6.026;2023-07-08T09:28:19;98113.88;;;37.59
79053;BMP280;68451;49.510;6.026;2023-07-08T09:30:48;98167.03;;;37.92
79053;BMP280;68451;49.510;6.026;2023-07-08T09:33:17;98173.19;;;38.10
79053;BMP280;68451;49.510;6.026;2023-07-08T09:35:46;98186.44;;;38.12
79053;BMP280;68451;49.510;6.026;2023-07-08T09:38:16;98164.38;;;37.78
79053;BMP280;68451;49.510;6.026;2023-07-08T09:40:49;98184.94;;;38.03
79053;BMP280;68451;49.510;6.026;2023-07-08T09:43:27;98188.22;;;37.49
79053;BMP280;68451;49.510;6.026;2023-07-08T09:45:58;98196.34;;;37.67
79053;BMP280;68451;49.510;6.026;2023-07-08T09:48:27;98166.31;;;37.77
79053;BMP280;68451;49.510;6.026;2023-07-08T09:50:56;98182.94;;;38.07
79053;BMP280;68451;49.510;6.026;2023-07-08T09:53:22;98179.41;;;38.11
79053;BMP280;68451;49.510;6.026;2023-07-08T09:55:50;98167.97;;;37.57
79053;BMP280;68451;49.510;6.026;2023-07-08T09:58:24;98173.44;;;37.53
79053;BMP280;68451;49.510;6.026;2023-07-08T10:00:56;98184.28;;;37.68
79053;BMP280;68451;49.510;6.026;2023-07-08T10:03:25;98107.31;;;37.42
79053;BMP280;68451;49.510;6.026;2023-07-08T10:05:52;98182.53;;;38.09
79053;BMP280;68451;49.510;6.026;2023-07-08T10:08:23;98182.75;;;38.36
79053;BMP280;68451;49.510;6.026;2023-07-08T10:10:57;98173.63;;;38.60
79053;BMP280;68451;49.510;6.026;2023-07-08T10:13:34;98064.25;;;37.92
79053;BMP280;68451;49.510;6.026;2023-07-08T10:16:23;98148.34;;;38.56
79053;BMP280;68451;49.510;6.026;2023-07-08T10:18:49;98103.91;;;38.07
79053;BMP280;68451;49.510;6.026;2023-07-08T10:21:34;98073.88;;;38.11
79053;BMP280;68451;49.510;6.026;2023-07-08T10:27:21;98187.81;;;37.61
79053;BMP280;68451;49.510;6.026;2023-07-08T10:35:27;98186.69;;;36.17
79053;BMP280;68451;49.510;6.026;2023-07-08T10:38:10;98195.16;;;36.01
79053;BMP280;68451;49.510;6.026;2023-07-08T10:41:05;98197.84;;;35.83
79053;BMP280;68451;49.510;6.026;2023-07-08T10:43:42;98203.56;;;35.68
79053;BMP280;68451;49.510;6.026;2023-07-08T10:52:23;98114.38;;;35.77
79053;BMP280;68451;49.510;6.026;2023-07-08T10:55:04;98170.44;;;36.63
79053;BMP280;68451;49.510;6.026;2023-07-08T11:03:11;98067.88;;;36.35
79053;BMP280;68451;49.510;6.026;2023-07-08T11:05:46;98095.78;;;36.04
79053;BMP280;68451;49.510;6.026;2023-07-08T11:11:15;98157.19;;;36.97
79053;BMP280;68451;49.510;6.026;2023-07-08T11:13:52;98164.16;;;37.26
79053;BMP280;68451;49.510;6.026;2023-07-08T11:16:26;98164.84;;;37.51
79053;BMP280;68451;49.510;6.026;2023-07-08T11:18:58;98155.94;;;37.44
79053;BMP280;68451;49.510;6.026;2023-07-08T11:21:32;98173.84;;;37.45
79053;BMP280;68451;49.510;6.026;2023-07-08T11:24:06;98173.88;;;37.34
79053;BMP280;68451;49.510;6.026;2023-07-08T11:26:41;98175.03;;;37.30
79053;BMP280;68451;49.510;6.026;2023-07-08T11:29:20;98152.53;;;36.97
79053;BMP280;68451;49.510;6.026;2023-07-08T11:31:47;98136.22;;;36.83
79053;BMP280;68451;49.510;6.026;2023-07-08T11:34:16;98175.13;;;36.87
79053;BMP280;68451;49.510;6.026;2023-07-08T11:36:43;98171.63;;;36.69
79053;BMP280;68451;49.510;6.026;2023-07-08T11:39:27;98170.44;;;36.70
79053;BMP280;68451;49.510;6.026;2023-07-08T11:42:24;98149.84;;;36.41
79053;BMP280;68451;49.510;6.026;2023-07-08T11:44:52;98174.69;;;36.39
79053;BMP280;68451;49.510;6.026;2023-07-08T11:47:42;98156.72;;;35.99
79053;BMP280;68451;49.510;6.026;2023-07-08T11:50:23;98158.75;;;36.27
79053;BMP280;68451;49.510;6.026;2023-07-08T11:53:00;98169.25;;;36.39
79053;BMP280;68451;49.510;6.026;2023-07-08T11:55:54;98152.53;;;36.26
79053;BMP280;68451;49.510;6.026;2023-07-08T11:58:31;98028.88;;;35.32
79053;BMP280;68451;49.510;6.026;2023-07-08T12:01:05;98163.34;;;36.05
79053;BMP280;68451;49.510;6.026;2023-07-08T12:03:35;98106.13;;;35.48
79053;BMP280;68451;49.510;6.026;2023-07-08T12:06:02;98157.03;;;35.66
79053;BMP280;68451;49.510;6.026;2023-07-08T12:08:37;98162.47;;;35.69
79053;BMP280;68451;49.510;6.026;2023-07-08T12:11:10;98132.44;;;35.37
79053;BMP280;68451;49.510;6.026;2023-07-08T12:13:37;98156.09;;;35.40
79053;BMP280;68451;49.510;6.026;2023-07-08T12:16:08;98153.34;;;35.33
79053;BMP280;68451;49.510;6.026;2023-07-08T12:18:36;98170.09;;;35.49
79053;BMP280;68451;49.510;6.026;2023-07-08T12:21:03;98139.38;;;35.31
79053;BMP280;68451;49.510;6.026;2023-07-08T12:23:30;98149.13;;;35.39
79053;BMP280;68451;49.510;6.026;2023-07-08T12:25:57;98155.78;;;35.53
79053;BMP280;68451;49.510;6.026;2023-07-08T12:28:23;98067.88;;;34.99
79053;BMP280;68451;49.510;6.026;2023-07-08T12:30:50;98124.34;;;35.52
79053;BMP280;68451;49.510;6.026;2023-07-08T12:33:22;98130.66;;;35.66
79053;BMP280;68451;49.510;6.026;2023-07-08T12:35:50;98127.16;;;35.73
79053;BMP280;68451;49.510;6.026;2023-07-08T12:38:21;98154.78;;;35.89
79053;BMP280;68451;49.510;6.026;2023-07-08T12:40:50;98148.53;;;35.81
79053;BMP280;68451;49.510;6.026;2023-07-08T12:43:16;98157.88;;;35.84
79053;BMP280;68451;49.510;6.026;2023-07-08T12:45:43;98143.09;;;35.85
79053;BMP280;68451;49.510;6.026;2023-07-08T12:48:09;98164.50;;;36.01
79053;BMP280;68451;49.510;6.026;2023-07-08T12:50:34;98153.59;;;35.83
79053;BMP280;68451;49.510;6.026;2023-07-08T12:53:00;98169.50;;;35.84
79053;BMP280;68451;49.510;6.026;2023-07-08T12:55:29;98166.75;;;35.74
79053;BMP280;68451;49.510;6.026;2023-07-08T12:57:55;98155.03;;;35.63
79053;BMP280;68451;49.510;6.026;2023-07-08T13:00:26;98165.88;;;35.56
79053;BMP280;68451;49.510;6.026;2023-07-08T13:03:05;97959.91;;;33.95
79053;BMP280;68451;49.510;6.026;2023-07-08T13:05:31;98150.06;;;34.99
79053;BMP280;68451;49.510;6.026;2023-07-08T13:07:57;98153.84;;;34.88
79053;BMP280;68451;49.510;6.026;2023-07-08T13:10:25;98160.81;;;34.85
79053;BMP280;68451;49.510;6.026;2023-07-08T13:12:55;98151.28;;;34.61
79053;BMP280;68451;49.510;6.026;2023-07-08T13:15:35;98117.34;;;33.94
79053;BMP280;68451;49.510;6.026;2023-07-08T13:18:02;98031.81;;;33.19
79053;BMP280;68451;49.510;6.026;2023-07-08T13:20:28;98124.63;;;33.86
79053;BMP280;68451;49.510;6.026;2023-07-08T13:22:58;98145.00;;;34.10
79053;BMP280;68451;49.510;6.026;2023-07-08T13:25:29;98043.69;;;33.44
79053;BMP280;68451;49.510;6.026;2023-07-08T13:27:59;98137.53;;;34.00
79053;BMP280;68451;49.510;6.026;2023-07-08T13:30:28;98164.34;;;34.12
79053;BMP280;68451;49.510;6.026;2023-07-08T13:32:55;98102.28;;;33.63
79053;BMP280;68451;49.510;6.026;2023-07-08T13:35:35;98169.31;;;34.06
79053;BMP280;68451;49.510;6.026;2023-07-08T13:38:01;98158.44;;;33.99
79053;BMP280;68451;49.510;6.026;2023-07-08T13:40:29;98154.16;;;33.98
79053;BMP280;68451;49.510;6.026;2023-07-08T13:42:55;98053.28;;;33.35
79053;BMP280;68451;49.510;6.026;2023-07-08T13:45:26;98157.25;;;33.97
79053;BMP280;68451;49.510;6.026;2023-07-08T13:47:59;98158.00;;;33.97
79053;BMP280;68451;49.510;6.026;2023-07-08T13:50:27;98168.63;;;34.13
79053;BMP280;68451;49.510;6.026;2023-07-08T13:52:57;98157.59;;;33.92
79053;BMP280;68451;49.510;6.026;2023-07-08T13:55:23;98157.88;;;33.83
79053;BMP280;68451;49.510;6.026;2023-07-08T13:57:58;98133.44;;;33.80
79053;BMP280;68451;49.510;6.026;2023-07-08T14:00:25;98165.66;;;34.22
79053;BMP280;68451;49.510;6.026;2023-07-08T14:02:50;98156.47;;;34.33
79053;BMP280;68451;49.510;6.026;2023-07-08T14:05:17;98053.28;;;33.71
79053;BMP280;68451;49.510;6.026;2023-07-08T14:07:45;98175.06;;;34.35
79053;BMP280;68451;49.510;6.026;2023-07-08T14:10:12;98161.25;;;34.10
79053;BMP280;68451;49.510;6.026;2023-07-08T14:12:38;98190.84;;;34.26
79053;BMP280;68451;49.510;6.026;2023-07-08T14:15:04;98168.19;;;34.07
79053;BMP280;68451;49.510;6.026;2023-07-08T14:17:30;98169.69;;;34.01
79053;BMP280;68451;49.510;6.026;2023-07-08T14:19:55;98081.94;;;33.39
79053;BMP280;68451;49.510;6.026;2023-07-08T14:22:26;98175.72;;;33.88
79053;BMP280;68451;49.510;6.026;2023-07-08T14:24:53;98186.13;;;33.86
79053;BMP280;68451;49.510;6.026;2023-07-08T14:27:18;98143.50;;;33.49
79053;BMP280;68451;49.510;6.026;2023-07-08T14:29:49;98165.88;;;33.43
79053;BMP280;68451;49.510;6.026;2023-07-08T14:32:20;98187.94;;;33.48
79053;BMP280;68451;49.510;6.026;2023-07-08T14:34:50;98019.97;;;32.45
79053;BMP280;68451;49.510;6.026;2023-07-08T14:37:16;98170.72;;;33.30
79053;BMP280;68451;49.510;6.026;2023-07-08T14:39:44;98180.19;;;33.17
79053;BMP280;68451;49.510;6.026;2023-07-08T14:42:12;98181.97;;;33.09
79053;BMP280;68451;49.510;6.026;2023-07-08T14:44:39;98153.88;;;32.91